Current Weather Conditions: station 46145

sailwx.info

Wind from 310 at 9 knots gusting 9

Wave height 0.6 meters (1 feet), 9 second period

Air temperature 8.8° C
Water temperature 9.3° C

Last reported at 2017-May-29 10:00 UTC.
Time now 2017-May-29 11:13 UTC

Location: N 54°24' W 132°24'.
View on Google Maps.

See reports from other nearby stations

  
Tides and Currents Weather Stations Pressure Air Temp Water Temp Dewpoint Dewpoint Depression Visibility Wind Speed Wind Dir Waves Ship Positions
date/time (UTC)wind fromknots sea level pressurealtimeterstation pressurevisibilityair tempwater tempwave heightnotes
2017-May-29 10:00 310 9 gusting 9 8.8 9.3 0.6
2017-May-29 09:00 320 9 gusting 11 9.1 9.1 0.6
2017-May-29 08:00 310 9 gusting 11 9.0 9.1 0.7
2017-May-29 07:00 310 9 gusting 11 8.9 9.1 0.7
2017-May-29 06:00 320 7 gusting 7 8.9 9.1 0.6
2017-May-29 05:00 280 7 gusting 7 9.0 9.4 0.6
2017-May-29 04:00 290 11 gusting 13 8.7 9.5 0.6
2017-May-29 03:00 270 9 gusting 13 8.4 9.2 0.6
2017-May-29 02:00 290 9 gusting 11 8.6 9.4 0.6
2017-May-29 01:00 280 13 gusting 15 9.1 9.7 0.5
2017-May-29 00:00 280 5 gusting 7 10.9 9.9 0.6
2017-May-28 23:00 300 7 gusting 7 10.8 9.9 0.6
2017-May-28 22:00 320 9 gusting 11 10.8 9.9 0.6
2017-May-28 21:00 210 3 gusting 11 12.0 9.9 0.6
2017-May-28 20:00 060 5 gusting 7 10.8 9.6 0.6
2017-May-28 19:00 080 9 gusting 11 10.6 9.3 0.6
2017-May-28 18:00 090 9 gusting 9 10.4 9.5 0.6
2017-May-28 17:00 070 7 gusting 9 10.9 9.6 0.5
2017-May-28 16:00 070 5 gusting 7 10.3 9.3 0.5
2017-May-28 15:00 100 5 gusting 7 10.2 8.9 0.5
2017-May-28 14:00 120 1 gusting 1 10.9 9.1 0.6
2017-May-28 13:00 090 1 gusting 3 11.3 9.1 0.7
2017-May-28 12:00 210 9.7 9.0 0.7
2017-May-28 11:00 210 9.5 9.1 0.8
2017-May-28 10:00 250 1 gusting 3 9.4 9.2 0.8
2017-May-28 09:00 230 3 gusting 3 9.3 9.0 0.8
2017-May-28 08:00 250 3 gusting 3 9.4 9.1 0.8
2017-May-28 07:00 250 3 gusting 5 9.5 8.9 0.9
2017-May-28 06:00 250 5 gusting 5 9.7 9.1 0.9
2017-May-28 05:00 250 3 gusting 5 9.6 9.1 0.8
2017-May-28 04:00 240 3 gusting 5 10.0 9.7 0.8
2017-May-28 03:00 280 3 gusting 3 10.4 9.8 0.8
2017-May-28 02:00 290 3 gusting 5 10.3 9.5 0.9
2017-May-28 01:00 280 3 gusting 5 9.9 9.5 0.9
2017-May-28 00:00 290 7 gusting 7 9.7 9.3 0.9
2017-May-27 23:00 300 5 gusting 7 9.5 9.2 1.0
2017-May-27 22:00 280 7 gusting 9 9.2 9.4 1.1
2017-May-27 21:00 290 5 gusting 7 9.2 9.2 1.1
2017-May-27 20:00 270 7 gusting 9 9.0 9.2 1.2
2017-May-27 19:00 280 7 gusting 9 8.9 9.1 1.3
2017-May-27 18:00 290 7 gusting 9 8.8 9.0 1.3
2017-May-27 17:00 280 7 gusting 9 8.7 8.9 1.2
2017-May-27 16:00 280 7 gusting 9 8.7 8.8 1.2
2017-May-27 15:00 280 7 gusting 9 8.7 8.7 1.2
2017-May-27 14:00 290 9 gusting 11 8.6 8.7 1.1
2017-May-27 13:00 280 11 gusting 13 8.4 8.7 1.4
2017-May-27 12:00 290 11 gusting 15 8.4 8.7 1.5
2017-May-27 11:00 300 13 gusting 15 8.4 8.6 1.6